Time;durP1;ratioP1;P1;durP2;ratioP2;P2;SDS_P1;SDS_P2;PMS_P1;PMS_P2;Temp;Humidity;BMP_temperature;BMP_pressure;BME280_temperature;BME280_humidity;BME280_pressure;Samples;Min_cycle;Max_cycle;Signal;HPM_P1;HPM_P2
2022/02/28 00:00:34;;;;;;;20.38;12.93;;;;;;;4.47;42.81;96545.09;5030778;28;20033;-68
2022/02/28 00:02:59;;;;;;;19.33;12.73;;;;;;;4.02;43.04;96508.00;5030448;28;20060;-69
2022/02/28 00:05:25;;;;;;;21.27;13.88;;;;;;;4.09;43.20;96503.41;5029750;28;20033;-70
2022/02/28 00:07:51;;;;;;;21.75;13.63;;;;;;;4.27;43.10;96542.00;5013340;28;20104;-69
2022/02/28 00:10:17;;;;;;;21.08;12.68;;;;;;;4.24;42.95;96529.28;5030506;28;20025;-68
2022/02/28 00:12:44;;;;;;;20.70;13.68;;;;;;;4.17;43.51;96540.75;5031075;28;20052;-68
2022/02/28 00:15:11;;;;;;;20.38;12.75;;;;;;;4.40;43.34;96536.50;5030847;28;20029;-68
2022/02/28 00:17:38;;;;;;;21.42;12.15;;;;;;;4.27;43.09;96536.75;5027955;28;20647;-68
2022/02/28 00:20:06;;;;;;;16.10;12.77;;;;;;;4.32;42.85;96534.22;5012559;28;20029;-69
2022/02/28 00:22:32;;;;;;;18.05;12.30;;;;;;;4.15;43.75;96534.13;5030761;28;20030;-68
2022/02/28 00:24:58;;;;;;;18.27;12.48;;;;;;;4.19;43.37;96535.25;5030817;28;20056;-68
2022/02/28 00:27:24;;;;;;;17.52;12.05;;;;;;;3.77;43.46;96492.41;5030863;28;20021;-70
2022/02/28 00:29:49;;;;;;;15.82;12.15;;;;;;;3.81;44.33;96512.00;5030656;28;20431;-70
2022/02/28 00:32:15;;;;;;;17.77;11.63;;;;;;;4.17;43.73;96535.47;5030286;28;20036;-69
2022/02/28 00:34:40;;;;;;;19.30;11.63;;;;;;;4.21;43.12;96519.22;5012840;28;20029;-67
2022/02/28 00:37:06;;;;;;;18.30;12.57;;;;;;;4.00;43.30;96502.97;5030746;28;20477;-70
2022/02/28 00:39:31;;;;;;;21.83;13.35;;;;;;;4.02;43.49;96519.34;5030326;28;20029;-68
2022/02/28 00:41:57;;;;;;;16.00;12.35;;;;;;;3.86;43.70;96491.84;5030393;28;20060;-68
2022/02/28 00:44:22;;;;;;;21.33;12.88;;;;;;;4.24;43.38;96532.72;5030794;28;20033;-69
2022/02/28 00:46:48;;;;;;;17.05;12.77;;;;;;;4.08;42.85;96502.63;5030417;28;20029;-69
2022/02/28 00:49:13;;;;;;;18.02;12.50;;;;;;;4.09;42.98;96501.56;5030005;28;20033;-68
2022/02/28 00:51:38;;;;;;;18.73;11.88;;;;;;;4.15;43.18;96510.41;5030597;28;20036;-68
2022/02/28 00:54:04;;;;;;;18.42;13.52;;;;;;;3.98;43.35;96502.38;5030749;28;20075;-69
2022/02/28 00:56:29;;;;;;;15.93;11.55;;;;;;;4.21;43.07;96522.66;5012976;28;20099;-69
2022/02/28 00:58:55;;;;;;;16.70;12.73;;;;;;;3.92;43.38;96495.41;5030284;28;20650;-69
2022/02/28 01:01:20;;;;;;;20.98;13.77;;;;;;;3.92;43.07;96485.69;5028696;28;20036;-68
2022/02/28 01:03:46;;;;;;;23.17;13.52;;;;;;;4.11;43.30;96511.91;5030194;28;20036;-69
2022/02/28 01:06:12;;;;;;;18.27;13.23;;;;;;;4.06;43.61;96509.16;5012965;28;20026;-69
2022/02/28 01:08:39;;;;;;;18.10;12.38;;;;;;;4.10;43.38;96513.75;5030445;28;20029;-69
2022/02/28 01:11:05;;;;;;;17.35;12.27;;;;;;;4.00;43.34;96497.72;5029079;28;20478;-68
2022/02/28 01:13:30;;;;;;;23.30;13.13;;;;;;;3.95;43.69;96504.69;5030416;28;20037;-69
2022/02/28 01:15:55;;;;;;;23.05;14.13;;;;;;;3.97;43.84;96495.53;5030810;28;20072;-68
2022/02/28 01:18:21;;;;;;;23.13;14.27;;;;;;;3.69;43.98;96464.63;5029960;28;20467;-69
2022/02/28 01:20:47;;;;;;;18.00;12.27;;;;;;;3.71;43.84;96464.38;5030096;28;20026;-68
2022/02/28 01:23:12;;;;;;;18.85;13.35;;;;;;;3.77;44.08;96476.63;5030522;28;20030;-68
2022/02/28 01:25:38;;;;;;;17.52;12.80;;;;;;;4.02;44.03;96502.75;5029260;28;20064;-68
2022/02/28 01:28:03;;;;;;;20.35;13.07;;;;;;;3.97;43.79;96494.72;5012793;28;20067;-67
2022/02/28 01:30:29;;;;;;;24.10;13.20;;;;;;;3.97;44.12;96505.25;5033240;28;20029;-67
2022/02/28 01:32:54;;;;;;;18.52;12.88;;;;;;;3.86;43.61;96488.44;5033763;28;20116;-69
2022/02/28 01:35:20;;;;;;;21.20;13.45;;;;;;;3.86;44.28;96489.22;5016421;28;20484;-69
2022/02/28 01:37:45;;;;;;;20.75;14.10;;;;;;;3.97;44.10;96506.06;5034064;28;20065;-69
2022/02/28 01:40:13;;;;;;;21.33;14.35;;;;;;;3.55;44.08;96457.97;5015880;28;20034;-69
2022/02/28 01:42:39;;;;;;;21.98;13.93;;;;;;;3.74;44.34;96469.19;5034105;28;20025;-68
2022/02/28 01:45:10;;;;;;;16.45;13.30;;;;;;;3.78;44.46;96486.91;5033851;28;20041;-68
2022/02/28 01:47:36;;;;;;;22.20;14.40;;;;;;;3.65;44.32;96472.16;5033380;28;20445;-68
2022/02/28 01:50:02;;;;;;;21.50;13.93;;;;;;;3.62;45.17;96474.44;5033231;28;20033;-69
2022/02/28 01:52:28;;;;;;;24.27;14.90;;;;;;;3.80;44.56;96486.72;5033588;28;20533;-68
2022/02/28 01:54:53;;;;;;;22.25;14.27;;;;;;;3.37;45.02;96443.06;5016011;28;20042;-69
2022/02/28 01:57:19;;;;;;;27.25;15.50;;;;;;;3.64;44.90;96478.47;5033638;28;20040;-68
2022/02/28 01:59:47;;;;;;;19.52;13.13;;;;;;;3.74;44.55;96475.25;5033098;28;20034;-68
2022/02/28 02:02:13;;;;;;;23.17;14.35;;;;;;;3.59;44.55;96469.63;5033111;28;20112;-68
2022/02/28 02:04:38;;;;;;;23.55;13.73;;;;;;;3.74;44.85;96512.09;5033268;28;20105;-68
2022/02/28 02:07:04;;;;;;;22.13;14.43;;;;;;;3.77;44.57;96495.84;5015642;28;20068;-68
2022/02/28 02:09:34;;;;;;;24.38;15.50;;;;;;;3.74;44.78;96503.41;5033166;28;20036;-68
2022/02/28 02:12:00;;;;;;;21.45;14.20;;;;;;;3.44;44.81;96456.91;5033071;28;20100;-68
2022/02/28 02:14:25;;;;;;;21.88;14.38;;;;;;;3.52;44.60;96477.63;5015462;28;20044;-69
2022/02/28 02:16:50;;;;;;;26.25;15.07;;;;;;;3.53;45.15;96479.25;5032834;28;20042;-68
2022/02/28 02:19:16;;;;;;;21.92;14.23;;;;;;;3.51;45.23;96491.00;5032600;28;20029;-69
2022/02/28 02:21:41;;;;;;;26.10;14.98;;;;;;;3.24;45.59;96445.91;5032751;28;20146;-68
2022/02/28 02:24:08;;;;;;;26.17;14.75;;;;;;;3.50;45.51;96498.09;5015400;28;20024;-68
2022/02/28 02:26:33;;;;;;;25.02;14.48;;;;;;;3.49;45.50;96480.72;5033178;28;20026;-68
2022/02/28 02:28:59;;;;;;;21.52;14.68;;;;;;;3.28;45.11;96444.44;5015071;28;20048;-69
2022/02/28 02:31:24;;;;;;;21.45;14.57;;;;;;;3.65;45.14;96514.25;5032282;28;20088;-67
2022/02/28 02:33:50;;;;;;;23.00;14.38;;;;;;;3.38;46.27;96505.97;5014606;28;20133;-68
2022/02/28 02:36:18;;;;;;;23.23;15.27;;;;;;;3.42;45.89;96487.88;5031476;28;20029;-68
2022/02/28 02:38:44;;;;;;;22.15;14.25;;;;;;;3.44;45.87;96485.84;5014726;28;20621;-69
2022/02/28 02:41:09;;;;;;;23.17;14.88;;;;;;;3.27;45.80;96483.03;5031607;28;20037;-69
2022/02/28 02:43:36;;;;;;;28.77;15.15;;;;;;;3.47;45.95;96519.59;5031443;28;20503;-69
2022/02/28 02:46:03;;;;;;;20.75;14.25;;;;;;;3.55;45.97;96511.38;5032684;28;20040;-69
2022/02/28 02:48:28;;;;;;;25.67;14.63;;;;;;;3.47;45.79;96509.06;5014234;28;20037;-67
2022/02/28 02:50:54;;;;;;;25.80;15.07;;;;;;;3.38;45.90;96484.13;5030884;28;20490;-68
2022/02/28 02:53:20;;;;;;;25.15;15.25;;;;;;;3.40;45.75;96497.84;5032547;28;20029;-68
2022/02/28 02:55:46;;;;;;;24.42;15.05;;;;;;;3.48;45.78;96501.97;5032553;28;20595;-68
2022/02/28 02:58:13;;;;;;;27.20;15.63;;;;;;;2.89;45.83;96409.78;5032429;28;20029;-69
2022/02/28 03:00:44;;;;;;;24.98;15.30;;;;;;;3.28;45.81;96454.94;5031768;28;20091;-68
2022/02/28 03:03:14;;;;;;;25.10;16.25;;;;;;;3.26;46.37;96493.78;5030752;28;20034;-68
2022/02/28 03:05:39;;;;;;;23.70;16.25;;;;;;;3.43;46.65;96522.88;5014474;28;20451;-70
2022/02/28 03:08:05;;;;;;;24.88;15.45;;;;;;;3.28;46.62;96518.06;5030875;28;20041;-68
2022/02/28 03:10:31;;;;;;;28.50;16.08;;;;;;;3.26;46.68;96499.06;5031742;28;20493;-68
2022/02/28 03:12:56;;;;;;;25.75;15.52;;;;;;;2.98;47.44;96492.56;5032298;28;20041;-68
2022/02/28 03:15:22;;;;;;;27.77;16.85;;;;;;;2.99;47.19;96485.47;5032186;28;20033;-68
2022/02/28 03:17:47;;;;;;;31.13;17.05;;;;;;;3.06;46.91;96479.09;5031526;28;20029;-68
2022/02/28 03:20:13;;;;;;;27.75;16.40;;;;;;;3.34;46.93;96525.03;5013804;28;20452;-68
2022/02/28 03:22:38;;;;;;;23.40;15.63;;;;;;;3.37;46.92;96528.00;5032110;28;20038;-68
2022/02/28 03:25:05;;;;;;;27.00;16.70;;;;;;;3.48;46.61;96539.63;5032481;28;20113;-68
2022/02/28 03:27:31;;;;;;;30.88;17.67;;;;;;;3.10;47.48;96527.56;5014625;28;20033;-68
2022/02/28 03:29:57;;;;;;;26.67;16.70;;;;;;;3.02;47.51;96499.00;5032053;28;20108;-69
2022/02/28 03:32:22;;;;;;;27.40;17.88;;;;;;;3.33;47.65;96537.41;5031591;28;20026;-69
2022/02/28 03:34:48;;;;;;;28.98;17.20;;;;;;;3.45;47.51;96549.78;5031946;28;20083;-68
2022/02/28 03:37:13;;;;;;;28.63;18.05;;;;;;;3.27;47.52;96532.22;5032186;28;20470;-70
2022/02/28 03:39:39;;;;;;;29.88;17.70;;;;;;;3.32;47.53;96529.72;5030489;28;20033;-68
2022/02/28 03:42:04;;;;;;;29.80;17.65;;;;;;;3.31;47.57;96536.81;5012855;28;20061;-68
2022/02/28 03:44:30;;;;;;;31.65;18.35;;;;;;;3.17;47.53;96527.47;5045622;22;20133;-64
2022/02/28 03:46:55;;;;;;;31.10;19.25;;;;;;;3.22;47.76;96526.81;5030860;28;20056;-64
2022/02/28 03:49:21;;;;;;;31.55;19.48;;;;;;;3.06;47.86;96505.38;5030948;28;20120;-65
2022/02/28 03:51:47;;;;;;;39.42;20.27;;;;;;;3.37;47.88;96553.50;5031016;28;20079;-64
2022/02/28 03:54:13;;;;;;;32.95;19.20;;;;;;;3.35;47.48;96545.06;5031564;28;20022;-63
2022/02/28 03:56:41;;;;;;;33.50;18.45;;;;;;;3.20;47.89;96515.72;5031162;28;20029;-63
2022/02/28 03:59:11;;;;;;;38.55;19.50;;;;;;;3.27;47.79;96532.22;5030860;28;20390;-65
2022/02/28 04:01:37;;;;;;;33.75;19.50;;;;;;;3.18;48.06;96534.38;5029833;28;20441;-64
2022/02/28 04:04:03;;;;;;;35.05;20.40;;;;;;;3.21;48.20;96544.41;5030724;28;20139;-63
2022/02/28 04:06:29;;;;;;;32.78;19.60;;;;;;;3.27;48.33;96540.91;5029758;28;20037;-64
2022/02/28 04:08:59;;;;;;;36.38;19.70;;;;;;;3.27;47.94;96533.00;5029302;28;20068;-64
2022/02/28 04:11:25;;;;;;;32.70;19.88;;;;;;;3.26;48.06;96533.25;5030892;28;20029;-64
2022/02/28 04:13:50;;;;;;;38.97;19.77;;;;;;;3.22;47.79;96539.97;5031203;28;20025;-66
2022/02/28 04:16:16;;;;;;;43.75;20.58;;;;;;;2.86;47.87;96479.34;5031211;28;20030;-63
2022/02/28 04:18:42;;;;;;;39.00;20.80;;;;;;;3.09;48.01;96515.47;5030147;28;20048;-64
2022/02/28 04:21:07;;;;;;;39.45;21.30;;;;;;;3.12;48.83;96537.88;5030629;28;20036;-63
2022/02/28 04:23:33;;;;;;;36.50;19.98;;;;;;;3.19;48.86;96533.34;5031118;28;20155;-64
2022/02/28 04:26:03;;;;;;;35.33;19.42;;;;;;;3.16;48.33;96535.59;5030930;28;20033;-63
2022/02/28 04:28:28;;;;;;;42.55;20.17;;;;;;;3.03;48.57;96511.09;5030647;28;20478;-65
2022/02/28 04:30:54;;;;;;;34.50;20.52;;;;;;;3.14;48.28;96543.72;5030754;28;20036;-65
2022/02/28 04:33:19;;;;;;;37.50;20.52;;;;;;;2.89;49.00;96501.78;5030302;28;20040;-65
2022/02/28 04:35:45;;;;;;;38.13;20.60;;;;;;;2.94;48.84;96501.91;5030637;28;20049;-65
2022/02/28 04:38:10;;;;;;;36.38;20.10;;;;;;;2.92;48.57;96519.75;5030822;28;20037;-65
2022/02/28 04:40:36;;;;;;;36.10;19.65;;;;;;;3.01;48.48;96521.00;5030367;28;20028;-65
2022/02/28 04:43:01;;;;;;;38.17;21.13;;;;;;;3.16;48.34;96540.84;5030950;28;20141;-66
2022/02/28 04:45:27;;;;;;;34.92;19.25;;;;;;;2.87;48.19;96503.84;5030799;28;20140;-63
2022/02/28 04:47:52;;;;;;;33.20;19.25;;;;;;;2.97;48.34;96519.03;5030879;28;20029;-67
2022/02/28 04:50:18;;;;;;;41.88;20.38;;;;;;;3.06;48.00;96536.13;5030051;28;20033;-63
2022/02/28 04:52:43;;;;;;;37.33;21.45;;;;;;;2.92;48.21;96524.16;5030795;28;20423;-65
2022/02/28 04:55:09;;;;;;;36.72;20.35;;;;;;;2.94;48.17;96536.06;5030689;28;20030;-65
2022/02/28 04:57:39;;;;;;;32.88;19.50;;;;;;;2.85;48.42;96545.28;5030684;28;20037;-64
2022/02/28 05:00:05;;;;;;;41.45;21.55;;;;;;;2.75;48.28;96524.78;5030557;28;20033;-64
2022/02/28 05:02:31;;;;;;;38.33;21.15;;;;;;;2.46;47.94;96480.88;5030237;28;20092;-65
2022/02/28 05:04:57;;;;;;;36.22;19.45;;;;;;;2.78;48.88;96547.19;5031861;28;20037;-64
2022/02/28 05:07:22;;;;;;;36.33;18.92;;;;;;;2.47;48.64;96495.63;5034552;28;20053;-64
2022/02/28 05:09:47;;;;;;;36.97;19.20;;;;;;;2.46;48.46;96509.78;5034118;28;20025;-65
2022/02/28 05:12:13;;;;;;;30.27;18.70;;;;;;;2.57;48.67;96522.16;5034278;28;20112;-65
2022/02/28 05:14:38;;;;;;;40.85;19.73;;;;;;;2.72;48.94;96541.00;5034751;28;20026;-64
2022/02/28 05:17:04;;;;;;;37.63;20.10;;;;;;;2.59;48.55;96518.28;5034253;28;20025;-65
2022/02/28 05:19:29;;;;;;;35.15;20.13;;;;;;;2.46;48.97;96504.53;5033228;28;20041;-65
2022/02/28 05:21:55;;;;;;;35.65;19.80;;;;;;;2.32;48.58;96486.28;5033966;28;20067;-64
2022/02/28 05:24:20;;;;;;;35.03;19.67;;;;;;;2.26;48.94;96484.53;5034047;28;20075;-64
2022/02/28 05:26:46;;;;;;;66.10;22.02;;;;;;;2.62;48.94;96550.41;5034158;28;20390;-65
2022/02/28 05:29:11;;;;;;;37.30;20.50;;;;;;;2.30;49.14;96498.00;5033571;28;20025;-64
2022/02/28 05:31:37;;;;;;;40.65;20.40;;;;;;;2.32;49.20;96503.84;5033362;28;20025;-64
2022/02/28 05:34:02;;;;;;;42.97;22.25;;;;;;;2.52;49.44;96533.34;5033548;28;20092;-63
2022/02/28 05:36:27;;;;;;;41.67;21.30;;;;;;;2.59;49.30;96536.69;5033789;28;20034;-64
2022/02/28 05:38:53;;;;;;;42.40;23.02;;;;;;;2.33;49.23;96501.00;5033477;28;20065;-64
2022/02/28 05:41:18;;;;;;;39.78;20.63;;;;;;;2.44;49.41;96525.72;5033621;28;20470;-63
2022/02/28 05:43:43;;;;;;;47.42;22.98;;;;;;;2.42;49.34;96534.84;5033742;28;20030;-64
2022/02/28 05:46:11;;;;;;;39.90;21.88;;;;;;;2.43;49.50;96544.34;5033794;28;20033;-64
2022/02/28 05:48:37;;;;;;;42.83;21.75;;;;;;;2.53;49.30;96553.31;5033007;28;20038;-64
2022/02/28 05:51:02;;;;;;;41.58;21.48;;;;;;;2.37;49.49;96538.13;5033174;28;20482;-65
2022/02/28 05:53:28;;;;;;;39.33;21.58;;;;;;;2.53;49.21;96557.78;5033338;28;20037;-63
2022/02/28 05:55:53;;;;;;;46.50;21.92;;;;;;;2.28;49.71;96513.97;5033533;28;20061;-64
2022/02/28 05:58:19;;;;;;;41.08;21.10;;;;;;;2.47;49.30;96542.88;5033766;28;20025;-65
2022/02/28 06:00:44;;;;;;;41.20;21.88;;;;;;;2.51;49.37;96565.88;5031738;28;20025;-63
2022/02/28 06:03:09;;;;;;;33.38;19.25;;;;;;;2.51;49.22;96565.88;5033025;28;20541;-63
2022/02/28 06:05:35;;;;;;;32.08;19.65;;;;;;;2.54;49.82;96573.31;5033299;28;20022;-63
2022/02/28 06:08:00;;;;;;;40.50;20.67;;;;;;;2.29;49.18;96530.53;5033295;28;20068;-63
2022/02/28 06:10:26;;;;;;;39.15;20.05;;;;;;;2.44;49.44;96580.88;5033049;28;20064;-64
2022/02/28 06:12:51;;;;;;;37.22;20.75;;;;;;;2.33;49.07;96552.72;5033281;28;20087;-63
2022/02/28 06:15:17;;;;;;;37.80;19.48;;;;;;;2.51;49.49;96597.41;5031842;28;20037;-64
2022/02/28 06:17:42;;;;;;;37.75;19.52;;;;;;;2.48;49.25;96568.94;5031593;28;20377;-64
2022/02/28 06:20:08;;;;;;;38.85;20.27;;;;;;;2.61;48.73;96581.13;5032534;28;20057;-64
2022/02/28 06:22:33;;;;;;;38.80;20.80;;;;;;;2.66;49.06;96577.81;5032806;28;20496;-65
2022/02/28 06:24:59;;;;;;;45.17;20.25;;;;;;;2.59;48.64;96568.19;5031867;28;20021;-64
2022/02/28 06:27:25;;;;;;;39.28;20.58;;;;;;;2.62;48.82;96572.22;5033026;28;20027;-65
2022/02/28 06:29:51;;;;;;;40.38;18.67;;;;;;;2.76;48.88;96591.25;5032544;28;20536;-65
2022/02/28 06:32:16;;;;;;;41.40;20.13;;;;;;;2.77;48.91;96582.38;5031426;28;20036;-64
2022/02/28 06:34:43;;;;;;;33.15;19.92;;;;;;;2.54;48.95;96547.03;5032205;28;20013;-64
2022/02/28 06:37:08;;;;;;;39.08;19.25;;;;;;;2.92;48.80;96590.69;5032679;28;20036;-65
2022/02/28 06:39:34;;;;;;;31.33;19.85;;;;;;;2.83;49.07;96560.47;5032466;28;20406;-65
2022/02/28 06:41:59;;;;;;;36.78;20.13;;;;;;;3.15;48.79;96602.34;5032373;28;20389;-63
2022/02/28 06:44:24;;;;;;;36.28;20.70;;;;;;;2.79;48.46;96543.53;5032584;28;20029;-66
2022/02/28 06:46:50;;;;;;;37.35;20.13;;;;;;;3.06;48.22;96576.34;5031120;28;20043;-63
2022/02/28 06:49:15;;;;;;;35.78;19.77;;;;;;;3.29;48.16;96598.56;5031911;28;20033;-64
2022/02/28 06:51:40;;;;;;;35.90;19.40;;;;;;;2.87;48.09;96540.63;5031930;28;20072;-65
2022/02/28 06:54:06;;;;;;;34.10;19.45;;;;;;;2.98;48.02;96539.88;5032418;28;20032;-65
2022/02/28 06:56:31;;;;;;;33.60;19.70;;;;;;;3.33;48.25;96590.00;5032413;28;20087;-70
2022/02/28 06:58:57;;;;;;;30.80;18.73;;;;;;;3.53;47.73;96609.94;5032179;28;20060;-65
2022/02/28 07:01:22;;;;;;;33.47;18.67;;;;;;;3.52;47.40;96595.19;5032112;28;20378;-62
2022/02/28 07:03:48;;;;;;;32.08;19.50;;;;;;;3.55;47.40;96598.19;5031806;28;20033;-67
2022/02/28 07:06:20;;;;;;;36.35;19.08;;;;;;;3.30;48.16;96579.13;5030738;28;20163;-67
2022/02/28 07:08:47;;;;;;;34.22;19.75;;;;;;;3.46;48.23;96573.22;5027553;28;20041;-68
2022/02/28 07:11:14;;;;;;;26.98;16.50;;;;;;;3.67;48.25;96597.44;5030645;28;20059;-68
2022/02/28 07:13:39;;;;;;;28.75;17.65;;;;;;;3.78;47.26;96575.59;5032044;28;20525;-67
2022/02/28 07:16:05;;;;;;;33.60;18.75;;;;;;;3.99;46.40;96572.44;5032221;28;20116;-68
2022/02/28 07:18:30;;;;;;;32.25;18.40;;;;;;;4.04;46.31;96592.81;5031613;28;20041;-68
2022/02/28 07:20:56;;;;;;;24.88;17.25;;;;;;;4.12;45.89;96574.88;5030857;28;20048;-65
2022/02/28 07:23:21;;;;;;;33.80;17.95;;;;;;;4.29;46.04;96592.63;5032172;28;20033;-66
2022/02/28 07:25:46;;;;;;;30.70;17.92;;;;;;;4.30;45.55;96568.72;5031837;28;20079;-64
2022/02/28 07:28:12;;;;;;;26.63;16.92;;;;;;;4.62;45.14;96594.69;5029979;28;20389;-64
2022/02/28 07:30:38;;;;;;;27.88;17.95;;;;;;;4.73;45.12;96614.19;5031030;28;20111;-63
2022/02/28 07:33:03;;;;;;;29.55;17.70;;;;;;;4.65;44.92;96586.31;5031825;28;20108;-63
2022/02/28 07:35:28;;;;;;;27.95;17.65;;;;;;;4.88;44.70;96617.13;5031454;28;20022;-65
2022/02/28 07:37:54;;;;;;;26.25;17.15;;;;;;;4.97;44.76;96607.84;5031500;28;20104;-65
2022/02/28 07:40:20;;;;;;;32.45;18.38;;;;;;;5.00;44.57;96607.38;5031082;28;20458;-65
2022/02/28 07:42:45;;;;;;;28.27;16.90;;;;;;;4.93;44.55;96575.06;5030093;28;20037;-64
2022/02/28 07:45:11;;;;;;;30.80;16.88;;;;;;;5.13;44.08;96596.56;5031454;28;20026;-64
2022/02/28 07:47:37;;;;;;;25.13;16.80;;;;;;;5.20;44.18;96609.63;5031247;28;20029;-65
2022/02/28 07:50:04;;;;;;;31.52;17.17;;;;;;;5.38;43.79;96617.38;5030102;28;20099;-63
2022/02/28 07:52:30;;;;;;;25.45;16.65;;;;;;;5.47;43.58;96629.16;5030876;28;20516;-64
2022/02/28 07:54:55;;;;;;;32.75;16.30;;;;;;;5.40;43.53;96604.75;5029885;28;20037;-63
2022/02/28 07:57:20;;;;;;;29.55;17.63;;;;;;;5.53;43.28;96616.03;5030024;28;20028;-63
2022/02/28 07:59:46;;;;;;;30.80;16.30;;;;;;;5.34;43.10;96599.63;5029551;28;20057;-65
2022/02/28 08:02:11;;;;;;;23.55;15.40;;;;;;;5.37;43.27;96601.75;5030935;28;20113;-64
2022/02/28 08:04:37;;;;;;;29.23;16.38;;;;;;;5.42;42.79;96604.50;5030390;28;20041;-64
2022/02/28 08:07:03;;;;;;;22.83;15.13;;;;;;;5.67;42.59;96630.56;5030965;28;20030;-64
2022/02/28 08:09:29;;;;;;;23.05;15.05;;;;;;;5.65;42.83;96608.91;5030664;28;20116;-65
2022/02/28 08:11:55;;;;;;;24.83;15.73;;;;;;;5.76;42.66;96615.16;5030928;28;20053;-66
2022/02/28 08:14:20;;;;;;;18.10;14.45;;;;;;;5.89;42.68;96622.81;5030924;28;20033;-64
2022/02/28 08:16:46;;;;;;;18.38;13.13;;;;;;;5.92;42.16;96615.22;5030980;28;20415;-63
2022/02/28 08:19:12;;;;;;;22.40;14.45;;;;;;;5.90;42.28;96621.75;5030136;28;20029;-65
2022/02/28 08:21:37;;;;;;;18.23;13.80;;;;;;;6.11;41.96;96629.03;5030407;28;20040;-66
2022/02/28 08:24:03;;;;;;;24.13;14.55;;;;;;;6.25;41.77;96613.66;5030907;28;20039;-65
2022/02/28 08:26:28;;;;;;;25.65;14.25;;;;;;;6.12;41.28;96606.84;5030777;28;20025;-64
2022/02/28 08:28:54;;;;;;;22.27;13.90;;;;;;;6.36;41.24;96617.28;5030377;28;20029;-64
2022/02/28 08:31:19;;;;;;;20.90;13.82;;;;;;;6.23;41.89;96619.16;5030597;28;20072;-64
2022/02/28 08:33:45;;;;;;;17.95;13.27;;;;;;;6.32;41.71;96601.09;5030258;28;20045;-64
2022/02/28 08:36:10;;;;;;;20.88;13.38;;;;;;;6.42;41.06;96597.78;5030511;28;20386;-64
2022/02/28 08:38:36;;;;;;;24.67;13.73;;;;;;;6.64;40.91;96619.81;5029421;28;20529;-65
2022/02/28 08:41:01;;;;;;;16.30;12.95;;;;;;;6.64;40.91;96625.09;5029173;28;20017;-65
2022/02/28 08:43:27;;;;;;;18.00;12.32;;;;;;;6.28;40.37;96607.09;5029192;28;20517;-65
2022/02/28 08:45:53;;;;;;;15.38;11.82;;;;;;;6.03;41.15;96607.47;5030353;28;20037;-66
2022/02/28 08:48:18;;;;;;;18.45;11.13;;;;;;;6.29;40.85;96585.69;5029882;28;20053;-65
2022/02/28 08:50:44;;;;;;;16.15;11.10;;;;;;;6.78;40.60;96628.19;5029928;28;20483;-64
2022/02/28 08:53:09;;;;;;;18.30;12.88;;;;;;;6.50;39.82;96571.78;5030293;28;20478;-66
2022/02/28 08:55:35;;;;;;;17.67;12.82;;;;;;;6.71;39.85;96598.50;5030582;28;20025;-64
2022/02/28 08:58:00;;;;;;;17.77;12.70;;;;;;;6.46;40.53;96614.78;5030363;28;20102;-64
2022/02/28 09:00:26;;;;;;;14.15;12.20;;;;;;;6.81;39.65;96603.09;5029822;28;20025;-64
2022/02/28 09:02:52;;;;;;;16.45;12.43;;;;;;;6.57;39.90;96549.66;5030310;28;20022;-64
2022/02/28 09:05:17;;;;;;;12.40;10.80;;;;;;;6.80;39.11;96598.84;5029815;28;20030;-64
2022/02/28 09:07:43;;;;;;;12.40;10.43;;;;;;;6.93;39.28;96611.75;5030075;28;20030;-65
2022/02/28 09:10:09;;;;;;;16.15;11.52;;;;;;;7.41;38.44;96623.44;5028590;28;20057;-64
2022/02/28 09:12:34;;;;;;;14.82;11.48;;;;;;;7.31;38.09;96602.94;5030228;28;20466;-65
2022/02/28 09:14:59;;;;;;;17.23;12.20;;;;;;;7.37;37.70;96583.47;5030028;28;20034;-67
2022/02/28 09:17:25;;;;;;;15.90;11.35;;;;;;;7.40;37.28;96605.97;5029781;28;20446;-66
2022/02/28 09:19:50;;;;;;;14.88;10.95;;;;;;;7.77;37.44;96616.69;5029493;28;20482;-66
2022/02/28 09:22:18;;;;;;;16.70;11.48;;;;;;;7.86;37.32;96646.19;5030022;28;20168;-64
2022/02/28 09:24:44;;;;;;;16.63;11.65;;;;;;;7.71;37.11;96589.34;5030246;28;20121;-65
2022/02/28 09:27:09;;;;;;;17.27;11.43;;;;;;;7.85;37.24;96636.66;5030251;28;20034;-65
2022/02/28 09:29:34;;;;;;;12.23;10.52;;;;;;;6.43;38.27;96628.47;5029847;28;20037;-66
2022/02/28 09:32:01;;;;;;;13.52;11.23;;;;;;;7.37;37.24;96619.69;5029688;28;20025;-65
2022/02/28 09:34:26;;;;;;;13.13;10.55;;;;;;;7.29;36.53;96613.78;5029612;28;20072;-65
2022/02/28 09:36:52;;;;;;;13.80;11.15;;;;;;;7.82;36.51;96633.44;5029808;28;20076;-65
2022/02/28 09:39:21;;;;;;;14.32;10.77;;;;;;;7.72;35.92;96621.94;5029606;28;20029;-66
2022/02/28 09:41:47;;;;;;;15.35;10.70;;;;;;;7.74;35.58;96591.53;5028623;28;20437;-65
2022/02/28 09:44:16;;;;;;;16.52;11.63;;;;;;;8.20;35.88;96631.69;5028992;28;21056;-64
2022/02/28 09:46:43;;;;;;;13.07;10.85;;;;;;;8.33;35.23;96636.56;5028592;28;20028;-66
2022/02/28 09:49:09;;;;;;;14.77;11.02;;;;;;;7.95;34.71;96610.25;5027748;28;20417;-65
2022/02/28 09:51:35;;;;;;;15.43;11.77;;;;;;;7.90;34.77;96618.97;5032661;28;20132;-66
2022/02/28 09:54:02;;;;;;;13.93;11.02;;;;;;;8.18;34.21;96633.78;5033275;28;20433;-67
2022/02/28 09:56:27;;;;;;;15.68;11.23;;;;;;;8.00;35.21;96618.25;5033400;28;20037;-66
2022/02/28 09:58:53;;;;;;;18.05;11.30;;;;;;;8.26;34.80;96620.06;5033070;28;20083;-67
2022/02/28 10:01:19;;;;;;;15.30;11.25;;;;;;;8.40;34.30;96638.25;5033209;28;20021;-66
2022/02/28 10:03:44;;;;;;;16.00;11.50;;;;;;;8.06;34.00;96590.75;5032957;28;20072;-67
2022/02/28 10:06:09;;;;;;;14.88;10.93;;;;;;;8.33;33.49;96623.31;5033221;28;20371;-66
2022/02/28 10:09:04;;;;;;;15.15;11.80;;;;;;;8.68;33.27;96632.63;5031662;28;20124;-66
2022/02/28 10:11:39;;;;;;;16.15;11.23;;;;;;;8.65;32.78;96611.94;5032060;28;20125;-65
2022/02/28 10:14:06;;;;;;;14.40;10.98;;;;;;;8.93;33.16;96629.34;5033365;28;20026;-64
2022/02/28 10:16:44;;;;;;;12.63;11.43;;;;;;;9.09;33.04;96619.59;5032223;28;20028;-65
2022/02/28 10:19:11;;;;;;;19.25;11.50;;;;;;;8.99;32.46;96619.53;5031500;28;20029;-65
2022/02/28 10:21:42;;;;;;;11.98;9.23;;;;;;;8.07;31.75;96605.59;5032686;28;20019;-65
2022/02/28 10:24:09;;;;;;;13.93;10.18;;;;;;;8.15;32.43;96607.00;5031882;28;20028;-66
2022/02/28 10:26:42;;;;;;;14.10;10.88;;;;;;;8.30;32.64;96625.69;5033145;28;20049;-66
2022/02/28 10:29:10;;;;;;;18.30;10.63;;;;;;;8.77;32.34;96619.69;5032910;28;20116;-65
2022/02/28 10:31:41;;;;;;;13.38;9.82;;;;;;;8.90;32.40;96621.88;5032905;28;20027;-62
2022/02/28 10:34:33;;;;;;;15.23;11.27;;;;;;;8.82;31.55;96617.88;5031223;28;20052;-66
2022/02/28 10:36:59;;;;;;;15.43;10.63;;;;;;;9.15;31.82;96621.22;5026451;28;20044;-65
2022/02/28 10:39:30;;;;;;;12.13;10.35;;;;;;;9.07;31.10;96582.72;5032359;28;20033;-65
2022/02/28 10:42:03;;;;;;;14.82;10.57;;;;;;;9.03;31.60;96607.38;5031231;28;20036;-67
2022/02/28 10:44:29;;;;;;;15.68;10.55;;;;;;;9.23;31.48;96591.53;5031076;28;20428;-64
2022/02/28 10:46:54;;;;;;;12.85;10.25;;;;;;;9.55;31.53;96603.84;5032723;28;20018;-64
2022/02/28 10:49:29;;;;;;;14.75;10.88;;;;;;;9.44;31.21;96575.66;5030282;28;20030;-69
2022/02/28 10:52:03;;;;;;;13.02;11.15;;;;;;;9.20;30.88;96594.69;5031938;28;20021;-66
2022/02/28 10:54:38;;;;;;;14.38;10.93;;;;;;;9.30;31.04;96623.16;5032384;28;20066;-63
2022/02/28 10:57:05;;;;;;;13.32;10.45;;;;;;;9.62;30.78;96601.75;5032482;28;20021;-65
2022/02/28 10:59:55;;;;;;;14.63;10.45;;;;;;;9.72;30.31;96612.41;5031871;28;20031;-64
2022/02/28 11:02:28;;;;;;;13.02;10.70;;;;;;;9.86;30.24;96597.56;5029924;28;20025;-64
2022/02/28 11:05:02;;;;;;;12.55;10.35;;;;;;;9.40;30.70;96601.16;5031757;28;20030;-64
2022/02/28 11:07:28;;;;;;;15.13;12.05;;;;;;;9.63;30.46;96608.69;5032070;28;20033;-66
2022/02/28 11:09:53;;;;;;;13.38;11.38;;;;;;;9.73;31.48;96574.16;5031609;28;20071;-67
2022/02/28 11:12:30;;;;;;;13.13;11.70;;;;;;;9.96;30.78;96582.69;5031855;28;20292;-65
2022/02/28 11:14:58;;;;;;;15.13;10.98;;;;;;;8.89;30.71;96596.41;5032175;28;20534;-68
2022/02/28 11:17:27;;;;;;;11.77;9.93;;;;;;;9.56;29.99;96595.63;5030603;28;20030;-67
2022/02/28 11:19:54;;;;;;;13.98;10.18;;;;;;;9.29;29.55;96566.59;5031331;28;20525;-65